Station Historical Data
Daily Summary for October 23, 2017 Units:  English    Metric   Both
« Previous Day
Next Day »
Daily Weekly Monthly Yearly Custom
  High: Low: Average:
Temperature: 71.0 °F 58.9 °F 65.7 °F
Dew Point: 58.8 °F 51.5 °F 55 °F
Humidity: 84% 61% 69%
Wind Speed: 13.0mph 0.0mph 3.3mph
Wind Gust: 22.0mph - -
Wind- - SSE
Pressure: 30.11 in 29.62 in -
Precipitation: 0.00 in    
Historical Graphs
 
 
Tabular Data for October 23, 2017
Time Temperature Dew Point Pressure Wind Wind Speed Wind Gust Humidity Rainfall Rate (Hourly)
00:04 62.8 °F 52.9 °F 30.11 in Calm   3.0 mph 70% 0.00 in
00:09 62.7 °F 53.2 °F 30.11 in Calm   3.0 mph 71% 0.00 in
00:14 62.9 °F 53.4 °F 30.11 in Calm   3.0 mph 71% 0.00 in
00:19 63.0 °F 53.4 °F 30.11 in Calm   2.0 mph 71% 0.00 in
00:24 63.2 °F 53.3 °F 30.11 in Calm   3.0 mph 70% 0.00 in
00:29 63.4 °F 53.4 °F 30.11 in SSW 1.0 mph 3.0 mph 70% 0.00 in
00:34 63.5 °F 53.5 °F 30.10 in Calm   4.0 mph 70% 0.00 in
00:39 63.5 °F 53.5 °F 30.10 in Calm   4.0 mph 70% 0.00 in
00:44 63.2 °F 53.3 °F 30.10 in Calm     70% 0.00 in
00:49 63.1 °F 53.2 °F 30.10 in Calm     70% 0.00 in
00:54 63.0 °F 53.4 °F 30.10 in Calm   4.0 mph 71% 0.00 in
00:59 63.1 °F 53.2 °F 30.10 in Calm     70% 0.00 in
01:04 63.4 °F 53.4 °F 30.10 in SW 1.0 mph 6.0 mph 70% 0.00 in
01:09 63.7 °F 53.7 °F 30.10 in SSE 3.0 mph 3.0 mph 70% 0.00 in
01:14 63.8 °F 53.4 °F 30.10 in SSW 1.0 mph 6.0 mph 69% 0.00 in
01:19 64.1 °F 53.7 °F 30.10 in South 1.0 mph 7.0 mph 69% 0.00 in
01:24 64.2 °F 53.8 °F 30.10 in South 2.0 mph 7.0 mph 69% 0.00 in
01:29 64.2 °F 53.8 °F 30.10 in SSE 1.0 mph 6.0 mph 69% 0.00 in
01:34 64.5 °F 54.1 °F 30.09 in SSE 2.0 mph 6.0 mph 69% 0.00 in
01:39 64.5 °F 53.7 °F 30.09 in Calm   3.0 mph 68% 0.00 in
01:44 64.4 °F 53.6 °F 30.09 in SSE 2.0 mph 4.0 mph 68% 0.00 in
01:49 64.5 °F 54.1 °F 30.09 in SSE 3.0 mph 7.0 mph 69% 0.00 in
01:54 64.5 °F 54.1 °F 30.09 in South 2.0 mph 7.0 mph 69% 0.00 in
01:59 64.5 °F 54.1 °F 30.08 in South 2.0 mph 7.0 mph 69% 0.00 in
02:04 64.4 °F 54.0 °F 30.09 in South 2.0 mph 7.0 mph 69% 0.00 in
02:09 64.3 °F 53.9 °F 30.09 in Calm   8.0 mph 69% 0.00 in
02:14 64.2 °F 53.8 °F 30.09 in Calm   4.0 mph 69% 0.00 in
02:19 64.0 °F 53.6 °F 30.09 in Calm   7.0 mph 69% 0.00 in
02:24 63.8 °F 53.4 °F 30.09 in SW 3.0 mph 5.0 mph 69% 0.00 in
02:29 63.7 °F 53.7 °F 30.09 in SSW 1.0 mph 6.0 mph 70% 0.00 in
02:34 63.6 °F 53.6 °F 30.09 in SSW 2.0 mph 6.0 mph 70% 0.00 in
02:39 63.3 °F 53.3 °F 30.09 in South 1.0 mph 5.0 mph 70% 0.00 in
02:44 63.3 °F 53.3 °F 30.09 in SSE 5.0 mph 7.0 mph 70% 0.00 in
02:49 63.4 °F 53.4 °F 30.09 in Calm   5.0 mph 70% 0.00 in
02:54 63.2 °F 53.3 °F 30.09 in SSE 2.0 mph 7.0 mph 70% 0.00 in
02:59 63.2 °F 53.3 °F 30.09 in Calm   6.0 mph 70% 0.00 in
03:04 63.2 °F 53.6 °F 30.09 in SSW 2.0 mph 6.0 mph 71% 0.00 in
03:09 63.1 °F 53.5 °F 30.09 in SSW 1.0 mph 4.0 mph 71% 0.00 in
03:14 63.1 °F 53.5 °F 30.09 in SSW 1.0 mph 7.0 mph 71% 0.00 in
03:19 63.1 °F 53.5 °F 30.09 in Calm   3.0 mph 71% 0.00 in
03:24 63.1 °F 53.5 °F 30.09 in Calm   5.0 mph 71% 0.00 in
03:29 63.0 °F 53.4 °F 30.08 in SSW 2.0 mph 2.0 mph 71% 0.00 in
03:34 62.9 °F 53.7 °F 30.08 in SSW 3.0 mph 4.0 mph 72% 0.00 in
03:39 62.8 °F 53.3 °F 30.09 in SSW 1.0 mph 5.0 mph 71% 0.00 in
03:44 62.7 °F 53.2 °F 30.08 in Calm   3.0 mph 71% 0.00 in
03:49 62.6 °F 53.4 °F 30.08 in Calm   5.0 mph 72% 0.00 in
03:54 62.5 °F 53.3 °F 30.08 in SSW 1.0 mph 4.0 mph 72% 0.00 in
03:59 62.3 °F 53.2 °F 30.08 in Calm   2.0 mph 72% 0.00 in
04:04 62.1 °F 53.0 °F 30.08 in Calm     72% 0.00 in
04:09 61.8 °F 53.1 °F 30.08 in Calm     73% 0.00 in
04:14 61.8 °F 53.1 °F 30.08 in Calm   3.0 mph 73% 0.00 in
04:19 61.8 °F 53.1 °F 30.08 in Calm   3.0 mph 73% 0.00 in
04:24 62.0 °F 53.2 °F 30.08 in Calm   5.0 mph 73% 0.00 in
04:29 62.1 °F 53.3 °F 30.08 in Calm   5.0 mph 73% 0.00 in
04:34 62.4 °F 53.3 °F 30.07 in Calm   3.0 mph 72% 0.00 in
04:39 62.4 °F 53.3 °F 30.07 in Calm   2.0 mph 72% 0.00 in
04:44 62.1 °F 53.3 °F 30.07 in South 4.0 mph 4.0 mph 73% 0.00 in
04:49 62.1 °F 53.3 °F 30.07 in Calm   6.0 mph 73% 0.00 in
04:54 62.1 °F 53.0 °F 30.07 in Calm     72% 0.00 in
04:59 61.9 °F 53.1 °F 30.07 in Calm     73% 0.00 in
05:04 61.6 °F 52.9 °F 30.07 in Calm     73% 0.00 in
05:09 61.2 °F 52.8 °F 30.07 in Calm     74% 0.00 in
05:14 60.9 °F 52.6 °F 30.07 in Calm   2.0 mph 74% 0.00 in
05:19 60.9 °F 52.6 °F 30.08 in Calm   4.0 mph 74% 0.00 in
05:24 60.8 °F 52.5 °F 30.08 in Calm   4.0 mph 74% 0.00 in
05:29 60.6 °F 52.3 °F 30.07 in Calm     74% 0.00 in
05:34 60.7 °F 52.7 °F 30.07 in Calm   2.0 mph 75% 0.00 in
05:39 60.6 °F 52.3 °F 30.07 in Calm   2.0 mph 74% 0.00 in
05:44 60.7 °F 52.4 °F 30.07 in Calm   2.0 mph 74% 0.00 in
05:49 60.8 °F 52.5 °F 30.07 in Calm   4.0 mph 74% 0.00 in
05:54 60.8 °F 52.5 °F 30.07 in Calm   1.0 mph 74% 0.00 in
05:59 60.5 °F 52.2 °F 30.06 in Calm     74% 0.00 in
06:04 60.2 °F 52.2 °F 30.07 in Calm     75% 0.00 in
06:09 59.6 °F 51.7 °F 30.06 in Calm     75% 0.00 in
06:14 59.2 °F 51.6 °F 30.06 in Calm     76% 0.00 in
06:19 59.1 °F 51.5 °F 30.06 in Calm     76% 0.00 in
06:24 58.9 °F 51.7 °F 30.06 in Calm     77% 0.00 in
06:29 58.9 °F 51.7 °F 30.06 in Calm     77% 0.00 in
06:34 58.9 °F 51.7 °F 30.06 in Calm     77% 0.00 in
06:39 58.9 °F 51.7 °F 30.06 in Calm   5.0 mph 77% 0.00 in
06:44 59.6 °F 52.0 °F 30.06 in SSE 1.0 mph 5.0 mph 76% 0.00 in
06:49 60.3 °F 52.7 °F 30.06 in SSE 1.0 mph 5.0 mph 76% 0.00 in
06:54 61.0 °F 53.0 °F 30.05 in SSE 3.0 mph 7.0 mph 75% 0.00 in
06:59 61.3 °F 52.9 °F 30.05 in SSE 3.0 mph 7.0 mph 74% 0.00 in
07:04 61.4 °F 53.0 °F 30.05 in SSE 2.0 mph 5.0 mph 74% 0.00 in
07:09 61.4 °F 53.0 °F 30.05 in ESE 5.0 mph 5.0 mph 74% 0.00 in
07:14 61.6 °F 53.2 °F 30.05 in South 1.0 mph 9.0 mph 74% 0.00 in
07:19 61.6 °F 53.2 °F 30.04 in SE 2.0 mph 6.0 mph 74% 0.00 in
07:24 61.7 °F 53.3 °F 30.04 in Calm   3.0 mph 74% 0.00 in
07:29 61.7 °F 53.3 °F 30.04 in SSE 6.0 mph 8.0 mph 74% 0.00 in
07:34 61.8 °F 53.4 °F 30.04 in SSE 3.0 mph 8.0 mph 74% 0.00 in
07:39 62.1 °F 53.3 °F 30.03 in SSE 4.0 mph 9.0 mph 73% 0.00 in
07:44 62.2 °F 53.4 °F 30.04 in SSE 3.0 mph 9.0 mph 73% 0.00 in
07:49 62.3 °F 53.5 °F 30.04 in SSE 3.0 mph 9.0 mph 73% 0.00 in
07:54 62.4 °F 53.6 °F 30.04 in SSE 3.0 mph 8.0 mph 73% 0.00 in
07:59 62.4 °F 53.6 °F 30.03 in South 4.0 mph 8.0 mph 73% 0.00 in
08:04 62.5 °F 53.7 °F 30.03 in South 2.0 mph 8.0 mph 73% 0.00 in
08:09 62.6 °F 53.4 °F 30.03 in SSE 3.0 mph 10.0 mph 72% 0.00 in
08:14 62.6 °F 53.4 °F 30.03 in SSE 4.0 mph 10.0 mph 72% 0.00 in
08:19 62.7 °F 53.5 °F 30.02 in SSE 1.0 mph 9.0 mph 72% 0.00 in
08:24 62.7 °F 53.5 °F 30.03 in SE 3.0 mph 8.0 mph 72% 0.00 in
08:29 62.7 °F 53.5 °F 30.03 in SSE 2.0 mph 9.0 mph 72% 0.00 in
08:39 62.7 °F 53.5 °F 30.04 in SSE 3.0 mph 12.0 mph 72% 0.00 in
08:44 62.7 °F 53.5 °F 30.04 in SSE 3.0 mph 10.0 mph 72% 0.00 in
08:49 62.8 °F 53.6 °F 30.03 in SSE 3.0 mph 10.0 mph 72% 0.00 in
08:54 62.9 °F 53.7 °F 30.03 in SSE 4.0 mph 10.0 mph 72% 0.00 in
08:59 63.0 °F 53.8 °F 30.03 in SE 4.0 mph 9.0 mph 72% 0.00 in
09:04 63.1 °F 53.9 °F 30.02 in SSE 3.0 mph 10.0 mph 72% 0.00 in
09:09 63.1 °F 53.9 °F 30.03 in SSE 6.0 mph 9.0 mph 72% 0.00 in
09:14 63.2 °F 54.0 °F 30.03 in SSE 4.0 mph 9.0 mph 72% 0.00 in
09:19 63.2 °F 54.0 °F 30.02 in SSE 4.0 mph 10.0 mph 72% 0.00 in
09:24 63.3 °F 53.7 °F 30.02 in SSE 4.0 mph 10.0 mph 71% 0.00 in
09:29 63.3 °F 53.7 °F 30.02 in SSE 3.0 mph 7.0 mph 71% 0.00 in
09:34 63.5 °F 53.9 °F 30.02 in SSE 2.0 mph 7.0 mph 71% 0.00 in
09:39 63.6 °F 54.0 °F 30.02 in South 4.0 mph 8.0 mph 71% 0.00 in
09:44 64.0 °F 54.4 °F 30.02 in South 3.0 mph 8.0 mph 71% 0.00 in
09:49 64.3 °F 54.3 °F 30.01 in SSE 3.0 mph 8.0 mph 70% 0.00 in
09:54 64.5 °F 54.5 °F 30.02 in SSE 3.0 mph 8.0 mph 70% 0.00 in
09:59 64.8 °F 54.4 °F 30.01 in South 4.0 mph 8.0 mph 69% 0.00 in
10:04 65.2 °F 55.2 °F 30.01 in SSE 5.0 mph 5.0 mph 70% 0.00 in
10:14 66.1 °F 55.6 °F 30.01 in SSE 4.0 mph 7.0 mph 69% 0.00 in
10:19 66.6 °F 55.3 °F 30.01 in SSE 3.0 mph 8.0 mph 67% 0.00 in
10:24 66.9 °F 55.6 °F 30.00 in SSE 4.0 mph 9.0 mph 67% 0.00 in
10:29 67.1 °F 55.4 °F 30.00 in SSE 3.0 mph 9.0 mph 66% 0.00 in
10:34 66.9 °F 55.2 °F 30.00 in SSE 4.0 mph 10.0 mph 66% 0.00 in
10:39 66.8 °F 55.1 °F 30.00 in SSE 4.0 mph 10.0 mph 66% 0.00 in
10:44 67.0 °F 55.3 °F 30.00 in SSE 4.0 mph 8.0 mph 66% 0.00 in
10:49 67.9 °F 56.1 °F 29.99 in SSE 3.0 mph 5.0 mph 66% 0.00 in
10:54 68.5 °F 55.8 °F 29.99 in South 3.0 mph 7.0 mph 64% 0.00 in
10:59 68.7 °F 56.0 °F 29.98 in SSE 3.0 mph 7.0 mph 64% 0.00 in
11:04 69.3 °F 55.7 °F 29.98 in SSE 1.0 mph 7.0 mph 62% 0.00 in
11:09 69.4 °F 55.4 °F 29.98 in South 3.0 mph 9.0 mph 61% 0.00 in
11:14 69.3 °F 55.7 °F 29.97 in SE 1.0 mph 9.0 mph 62% 0.00 in
11:19 69.4 °F 55.8 °F 29.97 in South 5.0 mph 5.0 mph 62% 0.00 in
11:24 69.5 °F 55.5 °F 29.98 in SSW 4.0 mph 9.0 mph 61% 0.00 in
11:29 69.5 °F 55.9 °F 29.97 in SSE 3.0 mph 9.0 mph 62% 0.00 in
11:34 69.4 °F 55.8 °F 29.97 in SSE 4.0 mph 9.0 mph 62% 0.00 in
11:39 69.4 °F 55.8 °F 29.97 in SSE 4.0 mph 9.0 mph 62% 0.00 in
11:44 69.5 °F 55.9 °F 29.97 in SSE 5.0 mph 8.0 mph 62% 0.00 in
11:49 69.5 °F 55.5 °F 29.97 in SSE 5.0 mph 10.0 mph 61% 0.00 in
11:54 69.4 °F 55.4 °F 29.97 in SSE 5.0 mph 10.0 mph 61% 0.00 in
11:59 69.3 °F 55.3 °F 29.97 in SSE 4.0 mph 8.0 mph 61% 0.00 in
12:04 69.2 °F 55.6 °F 29.96 in Calm   8.0 mph 62% 0.00 in
12:09 69.3 °F 55.7 °F 29.96 in South 4.0 mph 8.0 mph 62% 0.00 in
12:14 69.4 °F 55.4 °F 29.97 in South 4.0 mph 8.0 mph 61% 0.00 in
12:19 69.3 °F 55.7 °F 29.96 in SSE 2.0 mph 9.0 mph 62% 0.00 in
12:24 69.5 °F 55.5 °F 29.96 in SSE 4.0 mph 9.0 mph 61% 0.00 in
12:29 69.9 °F 56.3 °F 29.96 in SSE 7.0 mph 8.0 mph 62% 0.00 in
12:34 69.9 °F 55.8 °F 29.96 in South 4.0 mph 8.0 mph 61% 0.00 in
12:39 70.0 °F 56.4 °F 29.96 in SSE 4.0 mph 9.0 mph 62% 0.00 in
12:44 70.4 °F 56.8 °F 29.96 in South 3.0 mph 9.0 mph 62% 0.00 in
12:49 70.3 °F 56.7 °F 29.96 in South 3.0 mph 10.0 mph 62% 0.00 in
12:54 70.0 °F 56.4 °F 29.96 in South 4.0 mph 10.0 mph 62% 0.00 in
12:59 70.0 °F 56.4 °F 29.95 in SW 6.0 mph 8.0 mph 62% 0.00 in
13:04 70.0 °F 57.3 °F 29.95 in Calm   9.0 mph 64% 0.00 in
13:09 69.8 °F 57.1 °F 29.95 in SSE 1.0 mph 11.0 mph 64% 0.00 in
13:14 69.7 °F 57.0 °F 29.94 in South 4.0 mph 8.0 mph 64% 0.00 in
13:19 69.5 °F 56.8 °F 29.94 in South 2.0 mph 7.0 mph 64% 0.00 in
13:24 69.6 °F 56.9 °F 29.94 in South 3.0 mph 8.0 mph 64% 0.00 in
13:29 69.7 °F 57.4 °F 29.93 in Calm   10.0 mph 65% 0.00 in
13:34 70.2 °F 57.9 °F 29.93 in SSE 2.0 mph 8.0 mph 65% 0.00 in
13:39 70.2 °F 57.4 °F 29.92 in SSW 3.0 mph 10.0 mph 64% 0.00 in
13:44 70.2 °F 57.4 °F 29.92 in SSE 6.0 mph 11.0 mph 64% 0.00 in
13:49 70.1 °F 57.8 °F 29.91 in SSE 6.0 mph 12.0 mph 65% 0.00 in
13:54 70.1 °F 58.2 °F 29.91 in SSE 5.0 mph 12.0 mph 66% 0.00 in
13:59 70.5 °F 58.2 °F 29.90 in SSE 5.0 mph 10.0 mph 65% 0.00 in
14:04 70.8 °F 58.4 °F 29.90 in ESE 8.0 mph 11.0 mph 65% 0.00 in
14:09 70.8 °F 58.4 °F 29.90 in SE 3.0 mph 16.0 mph 65% 0.00 in
14:14 71.0 °F 58.6 °F 29.89 in SSE 7.0 mph 16.0 mph 65% 0.00 in
14:19 70.8 °F 58.4 °F 29.89 in South 6.0 mph 10.0 mph 65% 0.00 in
14:24 70.4 °F 58.5 °F 29.88 in SE 3.0 mph 13.0 mph 66% 0.00 in
14:29 70.3 °F 58.4 °F 29.88 in South 7.0 mph 13.0 mph 66% 0.00 in
14:34 70.1 °F 58.2 °F 29.87 in SE 1.0 mph 11.0 mph 66% 0.00 in
14:39 70.1 °F 58.6 °F 29.86 in South 4.0 mph 13.0 mph 67% 0.00 in
14:44 70.0 °F 58.1 °F 29.86 in SE 8.0 mph 12.0 mph 66% 0.00 in
14:49 69.6 °F 58.2 °F 29.86 in SSE 5.0 mph 12.0 mph 67% 0.00 in
14:54 69.3 °F 58.3 °F 29.86 in SSE 6.0 mph 13.0 mph 68% 0.00 in
14:59 68.6 °F 58.8 °F 29.85 in SSE 5.0 mph 13.0 mph 71% 0.00 in
15:04 68.3 °F 58.5 °F 29.86 in SE 5.0 mph 14.0 mph 71% 0.00 in
15:09 67.9 °F 58.5 °F 29.86 in SSE 5.0 mph 16.0 mph 72% 0.00 in
15:14 67.2 °F 58.2 °F 29.85 in SSE 5.0 mph 16.0 mph 73% 0.00 in
15:19 66.9 °F 58.3 °F 29.84 in South 3.0 mph 14.0 mph 74% 0.00 in
15:24 67.0 °F 58.1 °F 29.84 in SSE 2.0 mph 11.0 mph 73% 0.00 in
15:29 67.0 °F 57.7 °F 29.84 in South 4.0 mph 10.0 mph 72% 0.00 in
15:34 66.9 °F 58.0 °F 29.83 in SE 4.0 mph 9.0 mph 73% 0.00 in
15:39 67.0 °F 57.7 °F 29.83 in ENE 8.0 mph 10.0 mph 72% 0.00 in
15:44 67.2 °F 57.5 °F 29.83 in SE 5.0 mph 10.0 mph 71% 0.00 in
15:49 67.3 °F 57.6 °F 29.82 in SSE 8.0 mph 12.0 mph 71% 0.00 in
15:54 67.4 °F 57.3 °F 29.82 in SE 5.0 mph 12.0 mph 70% 0.00 in
15:59 67.3 °F 57.2 °F 29.82 in SE 5.0 mph 10.0 mph 70% 0.00 in
16:04 67.3 °F 57.2 °F 29.81 in SE 4.0 mph 9.0 mph 70% 0.00 in
16:09 67.4 °F 57.3 °F 29.81 in SE 3.0 mph 8.0 mph 70% 0.00 in
16:14 67.3 °F 57.2 °F 29.81 in SE 2.0 mph 8.0 mph 70% 0.00 in
16:19 67.3 °F 57.2 °F 29.81 in SE 3.0 mph 8.0 mph 70% 0.00 in
16:24 67.3 °F 56.8 °F 29.80 in ESE 7.0 mph 8.0 mph 69% 0.00 in
16:29 67.4 °F 56.9 °F 29.80 in SE 3.0 mph 8.0 mph 69% 0.00 in
16:34 67.3 °F 56.8 °F 29.80 in SE 3.0 mph 9.0 mph 69% 0.00 in
16:39 67.2 °F 56.7 °F 29.80 in SE 5.0 mph 9.0 mph 69% 0.00 in
16:44 67.2 °F 56.7 °F 29.80 in SE 3.0 mph 12.0 mph 69% 0.00 in
16:49 67.2 °F 57.1 °F 29.80 in South 3.0 mph 4.0 mph 70% 0.00 in
16:54 67.3 °F 56.4 °F 29.80 in SSE 3.0 mph 7.0 mph 68% 0.00 in
16:59 67.5 °F 56.6 °F 29.80 in SE 2.0 mph 7.0 mph 68% 0.00 in
17:04 67.5 °F 56.6 °F 29.81 in SSE 2.0 mph 7.0 mph 68% 0.00 in
17:09 67.6 °F 55.8 °F 29.80 in SSE 2.0 mph 7.0 mph 66% 0.00 in
17:14 67.6 °F 55.8 °F 29.80 in SSE 3.0 mph 7.0 mph 66% 0.00 in
17:19 67.6 °F 55.8 °F 29.81 in South 6.0 mph 10.0 mph 66% 0.00 in
17:24 67.7 °F 55.9 °F 29.80 in SSE 3.0 mph 10.0 mph 66% 0.00 in
17:29 67.8 °F 55.6 °F 29.80 in SSE 4.0 mph 9.0 mph 65% 0.00 in
17:34 67.8 °F 56.0 °F 29.79 in SSE 4.0 mph 11.0 mph 66% 0.00 in
17:39 67.6 °F 56.2 °F 29.79 in SSE 4.0 mph 11.0 mph 67% 0.01 in
17:44 67.1 °F 56.6 °F 29.79 in SE 4.0 mph 8.0 mph 69% 0.01 in
17:49 66.7 °F 56.2 °F 29.79 in SSE 3.0 mph 11.0 mph 69% 0.01 in
17:59 66.3 °F 56.6 °F 29.78 in Calm   9.0 mph 71% 0.01 in
18:04 66.0 °F 56.3 °F 29.78 in SE 3.0 mph 6.0 mph 71% 0.01 in
18:09 66.0 °F 55.9 °F 29.77 in SSE 3.0 mph 10.0 mph 70% 0.01 in
18:14 66.2 °F 55.7 °F 29.77 in SSE 4.0 mph 10.0 mph 69% 0.01 in
18:19 66.4 °F 55.9 °F 29.76 in SE 4.0 mph 9.0 mph 69% 0.01 in
18:24 66.4 °F 55.9 °F 29.76 in SSE 3.0 mph 8.0 mph 69% 0.01 in
18:29 66.4 °F 55.5 °F 29.75 in SSE 3.0 mph 13.0 mph 68% 0.01 in
18:34 66.6 °F 55.3 °F 29.75 in SE 4.0 mph 13.0 mph 67% 0.01 in
18:39 66.8 °F 55.1 °F 29.74 in SE 5.0 mph 13.0 mph 66% 0.00 in
18:44 66.9 °F 55.2 °F 29.74 in SE 5.0 mph 13.0 mph 66% 0.00 in
18:49 66.9 °F 55.2 °F 29.74 in SE 5.0 mph 13.0 mph 66% 0.00 in
18:54 67.0 °F 55.3 °F 29.73 in SE 5.0 mph 14.0 mph 66% 0.00 in
18:59 67.1 °F 55.4 °F 29.73 in SE 5.0 mph 13.0 mph 66% 0.00 in
19:04 67.2 °F 55.0 °F 29.73 in SSE 6.0 mph 13.0 mph 65% 0.00 in
19:09 67.3 °F 55.1 °F 29.72 in SE 2.0 mph 11.0 mph 65% 0.00 in
19:14 67.2 °F 55.0 °F 29.72 in SE 5.0 mph 11.0 mph 65% 0.00 in
19:19 67.2 °F 55.0 °F 29.71 in SSE 2.0 mph 11.0 mph 65% 0.00 in
19:24 67.1 °F 55.4 °F 29.70 in SE 13.0 mph 13.0 mph 66% 0.00 in
19:29 67.2 °F 55.0 °F 29.69 in East 3.0 mph 14.0 mph 65% 0.00 in
19:34 67.3 °F 55.1 °F 29.69 in SE 5.0 mph 10.0 mph 65% 0.00 in
19:39 67.3 °F 55.1 °F 29.69 in East 8.0 mph 10.0 mph 65% 0.00 in
19:44 67.4 °F 55.6 °F 29.70 in SSE 8.0 mph 15.0 mph 66% 0.00 in
19:49 67.5 °F 55.7 °F 29.70 in SSE 6.0 mph 15.0 mph 66% 0.00 in
19:54 67.6 °F 55.8 °F 29.69 in SSE 5.0 mph 12.0 mph 66% 0.00 in
19:59 67.6 °F 55.8 °F 29.68 in SSE 6.0 mph 14.0 mph 66% 0.00 in
20:04 67.6 °F 55.8 °F 29.68 in SSE 7.0 mph 16.0 mph 66% 0.00 in
20:09 67.6 °F 55.8 °F 29.67 in SSE 4.0 mph 11.0 mph 66% 0.00 in
20:14 67.6 °F 55.8 °F 29.67 in SE 4.0 mph 12.0 mph 66% 0.00 in
20:19 67.6 °F 56.2 °F 29.66 in WSW 4.0 mph 14.0 mph 67% 0.00 in
20:24 67.5 °F 56.2 °F 29.66 in SSE 5.0 mph 14.0 mph 67% 0.00 in
20:29 67.5 °F 56.2 °F 29.66 in SSE 7.0 mph 16.0 mph 67% 0.00 in
20:34 67.7 °F 56.3 °F 29.66 in SE 5.0 mph 15.0 mph 67% 0.00 in
20:39 67.7 °F 56.3 °F 29.65 in SSE 10.0 mph 16.0 mph 67% 0.00 in
20:44 67.7 °F 56.3 °F 29.65 in SSW 6.0 mph 19.0 mph 67% 0.00 in
20:49 67.8 °F 56.0 °F 29.65 in SSE 10.0 mph 17.0 mph 66% 0.00 in
20:54 67.8 °F 56.0 °F 29.65 in SSE 8.0 mph 19.0 mph 66% 0.00 in
20:59 67.9 °F 56.1 °F 29.66 in SSE 7.0 mph 20.0 mph 66% 0.00 in
21:04 68.0 °F 56.2 °F 29.66 in SSE 7.0 mph 20.0 mph 66% 0.00 in
21:09 68.1 °F 55.9 °F 29.67 in South 5.0 mph 15.0 mph 65% 0.00 in
21:14 68.3 °F 56.1 °F 29.67 in South 3.0 mph 18.0 mph 65% 0.00 in
21:19 68.6 °F 55.9 °F 29.67 in South 5.0 mph 18.0 mph 64% 0.00 in
21:24 68.7 °F 56.0 °F 29.67 in SSE 8.0 mph 20.0 mph 64% 0.00 in
21:29 68.8 °F 55.7 °F 29.67 in SSE 7.0 mph 20.0 mph 63% 0.00 in
21:34 68.9 °F 55.8 °F 29.67 in SSE 6.0 mph 15.0 mph 63% 0.00 in
21:39 68.9 °F 55.8 °F 29.66 in SSE 7.0 mph 14.0 mph 63% 0.00 in
21:44 69.0 °F 55.9 °F 29.67 in South 3.0 mph 12.0 mph 63% 0.00 in
21:49 69.0 °F 55.9 °F 29.66 in South 6.0 mph 17.0 mph 63% 0.00 in
21:54 69.2 °F 55.6 °F 29.66 in SSW 7.0 mph 17.0 mph 62% 0.00 in
21:59 69.3 °F 55.7 °F 29.66 in SSE 8.0 mph 17.0 mph 62% 0.00 in
22:04 69.4 °F 55.8 °F 29.65 in SSE 7.0 mph 14.0 mph 62% 0.00 in
22:09 69.4 °F 55.8 °F 29.64 in SSE 5.0 mph 14.0 mph 62% 0.00 in
22:14 69.5 °F 55.9 °F 29.64 in East 6.0 mph 15.0 mph 62% 0.00 in
22:19 69.7 °F 56.1 °F 29.64 in SSE 9.0 mph 14.0 mph 62% 0.00 in
22:24 69.9 °F 56.3 °F 29.64 in SW 7.0 mph 14.0 mph 62% 0.00 in
22:29 70.0 °F 55.9 °F 29.64 in SSE 7.0 mph 14.0 mph 61% 0.00 in
22:34 70.0 °F 55.9 °F 29.64 in SSE 7.0 mph 14.0 mph 61% 0.00 in
22:39 70.0 °F 55.9 °F 29.63 in SSW 3.0 mph 18.0 mph 61% 0.00 in
22:44 70.1 °F 56.0 °F 29.62 in SE 6.0 mph 19.0 mph 61% 0.00 in
22:49 70.1 °F 56.0 °F 29.62 in South 3.0 mph 15.0 mph 61% 0.00 in
22:54 70.3 °F 56.2 °F 29.62 in SSW 7.0 mph 18.0 mph 61% 0.00 in
22:59 70.3 °F 56.2 °F 29.62 in SSE 11.0 mph 21.0 mph 61% 0.00 in
23:04 70.3 °F 56.2 °F 29.63 in South 8.0 mph 22.0 mph 61% 0.00 in
23:09 69.7 °F 56.1 °F 29.65 in SSW 10.0 mph 22.0 mph 62% 0.00 in
23:19 64.3 °F 55.8 °F 29.65 in WSW 10.0 mph 21.0 mph 74% 0.01 in
23:24 62.7 °F 55.4 °F 29.66 in WSW 7.0 mph 16.0 mph 77% 0.01 in
23:29 62.0 °F 55.8 °F 29.65 in West 3.0 mph 16.0 mph 80% 0.01 in
23:34 61.5 °F 55.6 °F 29.65 in South 6.0 mph 13.0 mph 81% 0.02 in
23:39 61.1 °F 55.6 °F 29.64 in SW 6.0 mph 13.0 mph 82% 0.02 in
23:44 60.7 °F 55.2 °F 29.63 in SW 8.0 mph 11.0 mph 82% 0.02 in
23:49 60.5 °F 55.3 °F 29.63 in SW 1.0 mph 9.0 mph 83% 0.02 in
23:59 60.3 °F 55.4 °F 29.62 in South 3.0 mph 6.0 mph 84% 0.02 in
Buffalo, New York, USA
Compliments of Weather Underground - 2.5 mb